sensor_id;sensor_type;location;lat;lon;timestamp;P1;durP1;ratioP1;P2;durP2;ratioP2
74922;SDS011;64715;44.760;37.678;2023-11-19T00:00:48;3.47;;;0.83;;
74922;SDS011;64715;44.760;37.678;2023-11-19T00:01:49;1.67;;;0.55;;
74922;SDS011;64715;44.760;37.678;2023-11-19T00:02:49;5.53;;;1.58;;
74922;SDS011;64715;44.760;37.678;2023-11-19T00:03:50;2.65;;;0.77;;
74922;SDS011;64715;44.760;37.678;2023-11-19T00:04:51;2.45;;;1.02;;
74922;SDS011;64715;44.760;37.678;2023-11-19T00:05:53;2.95;;;0.85;;
74922;SDS011;64715;44.760;37.678;2023-11-19T00:06:54;3.20;;;0.60;;
74922;SDS011;64715;44.760;37.678;2023-11-19T00:07:55;5.82;;;1.25;;
74922;SDS011;64715;44.760;37.678;2023-11-19T00:08:56;4.40;;;1.10;;
74922;SDS011;64715;44.760;37.678;2023-11-19T00:09:57;4.43;;;1.77;;
74922;SDS011;64715;44.760;37.678;2023-11-19T00:10:58;3.90;;;0.88;;
74922;SDS011;64715;44.760;37.678;2023-11-19T00:11:59;2.20;;;0.68;;
74922;SDS011;64715;44.760;37.678;2023-11-19T00:13:00;4.05;;;1.02;;
74922;SDS011;64715;44.760;37.678;2023-11-19T00:14:03;4.90;;;1.27;;
74922;SDS011;64715;44.760;37.678;2023-11-19T00:15:04;5.03;;;1.67;;
74922;SDS011;64715;44.760;37.678;2023-11-19T00:16:07;4.05;;;0.95;;
74922;SDS011;64715;44.760;37.678;2023-11-19T00:17:10;3.58;;;0.85;;
74922;SDS011;64715;44.760;37.678;2023-11-19T00:18:11;1.90;;;0.55;;
74922;SDS011;64715;44.760;37.678;2023-11-19T00:19:11;3.67;;;0.77;;
74922;SDS011;64715;44.760;37.678;2023-11-19T00:20:16;2.10;;;0.70;;
74922;SDS011;64715;44.760;37.678;2023-11-19T00:21:18;2.78;;;0.98;;
74922;SDS011;64715;44.760;37.678;2023-11-19T00:22:18;3.13;;;0.93;;
74922;SDS011;64715;44.760;37.678;2023-11-19T00:23:21;1.92;;;0.55;;
74922;SDS011;64715;44.760;37.678;2023-11-19T00:24:23;2.95;;;0.73;;
74922;SDS011;64715;44.760;37.678;2023-11-19T00:25:24;1.05;;;0.20;;
74922;SDS011;64715;44.760;37.678;2023-11-19T00:26:25;2.63;;;0.88;;
74922;SDS011;64715;44.760;37.678;2023-11-19T00:27:27;4.97;;;1.27;;
74922;SDS011;64715;44.760;37.678;2023-11-19T00:28:28;4.65;;;0.73;;
74922;SDS011;64715;44.760;37.678;2023-11-19T00:29:29;2.58;;;0.57;;
74922;SDS011;64715;44.760;37.678;2023-11-19T00:30:30;2.03;;;0.95;;
74922;SDS011;64715;44.760;37.678;2023-11-19T00:31:31;2.80;;;0.98;;
74922;SDS011;64715;44.760;37.678;2023-11-19T00:32:32;4.95;;;1.13;;
74922;SDS011;64715;44.760;37.678;2023-11-19T00:33:34;3.67;;;0.70;;
74922;SDS011;64715;44.760;37.678;2023-11-19T00:34:35;3.50;;;0.82;;
74922;SDS011;64715;44.760;37.678;2023-11-19T00:35:36;2.72;;;0.73;;
74922;SDS011;64715;44.760;37.678;2023-11-19T00:36:37;2.15;;;0.60;;
74922;SDS011;64715;44.760;37.678;2023-11-19T00:37:38;2.35;;;0.85;;
74922;SDS011;64715;44.760;37.678;2023-11-19T00:38:40;2.17;;;0.50;;
74922;SDS011;64715;44.760;37.678;2023-11-19T00:39:41;2.10;;;0.47;;
74922;SDS011;64715;44.760;37.678;2023-11-19T00:40:42;2.60;;;0.50;;
74922;SDS011;64715;44.760;37.678;2023-11-19T00:41:44;1.47;;;0.30;;
74922;SDS011;64715;44.760;37.678;2023-11-19T00:42:46;0.85;;;0.15;;
74922;SDS011;64715;44.760;37.678;2023-11-19T00:43:47;3.80;;;1.30;;
74922;SDS011;64715;44.760;37.678;2023-11-19T00:44:50;3.05;;;0.65;;
74922;SDS011;64715;44.760;37.678;2023-11-19T00:45:52;2.10;;;0.75;;
74922;SDS011;64715;44.760;37.678;2023-11-19T00:46:53;2.47;;;0.65;;
74922;SDS011;64715;44.760;37.678;2023-11-19T00:47:54;2.47;;;0.85;;
74922;SDS011;64715;44.760;37.678;2023-11-19T00:48:55;1.80;;;0.60;;
74922;SDS011;64715;44.760;37.678;2023-11-19T00:49:56;2.58;;;1.25;;
74922;SDS011;64715;44.760;37.678;2023-11-19T00:50:56;2.22;;;0.85;;
74922;SDS011;64715;44.760;37.678;2023-11-19T00:51:58;3.53;;;1.25;;
74922;SDS011;64715;44.760;37.678;2023-11-19T00:52:59;4.53;;;1.23;;
74922;SDS011;64715;44.760;37.678;2023-11-19T00:54:00;1.80;;;0.55;;
74922;SDS011;64715;44.760;37.678;2023-11-19T00:55:01;3.38;;;1.08;;
74922;SDS011;64715;44.760;37.678;2023-11-19T00:56:02;3.13;;;0.98;;
74922;SDS011;64715;44.760;37.678;2023-11-19T00:57:03;5.70;;;1.60;;
74922;SDS011;64715;44.760;37.678;2023-11-19T00:58:04;5.60;;;1.67;;
74922;SDS011;64715;44.760;37.678;2023-11-19T00:59:06;5.38;;;1.30;;
74922;SDS011;64715;44.760;37.678;2023-11-19T01:00:08;4.72;;;1.02;;
74922;SDS011;64715;44.760;37.678;2023-11-19T01:01:18;3.20;;;1.10;;
74922;SDS011;64715;44.760;37.678;2023-11-19T01:02:19;2.22;;;0.70;;
74922;SDS011;64715;44.760;37.678;2023-11-19T01:03:20;2.88;;;1.00;;
74922;SDS011;64715;44.760;37.678;2023-11-19T01:04:21;5.00;;;1.40;;
74922;SDS011;64715;44.760;37.678;2023-11-19T01:05:22;4.40;;;0.73;;
74922;SDS011;64715;44.760;37.678;2023-11-19T01:06:26;2.90;;;0.70;;
74922;SDS011;64715;44.760;37.678;2023-11-19T01:07:28;9.23;;;1.63;;
74922;SDS011;64715;44.760;37.678;2023-11-19T01:08:29;2.83;;;0.73;;
74922;SDS011;64715;44.760;37.678;2023-11-19T01:09:31;5.45;;;1.65;;
74922;SDS011;64715;44.760;37.678;2023-11-19T01:10:38;3.28;;;0.98;;
74922;SDS011;64715;44.760;37.678;2023-11-19T01:11:39;0.52;;;0.10;;
74922;SDS011;64715;44.760;37.678;2023-11-19T01:12:40;0.88;;;0.10;;
74922;SDS011;64715;44.760;37.678;2023-11-19T01:13:41;0.90;;;0.10;;
74922;SDS011;64715;44.760;37.678;2023-11-19T01:14:42;0.83;;;0.10;;
74922;SDS011;64715;44.760;37.678;2023-11-19T01:15:43;0.70;;;0.10;;
74922;SDS011;64715;44.760;37.678;2023-11-19T01:16:44;0.90;;;0.10;;
74922;SDS011;64715;44.760;37.678;2023-11-19T01:17:45;0.80;;;0.10;;
74922;SDS011;64715;44.760;37.678;2023-11-19T01:18:47;0.80;;;0.10;;
74922;SDS011;64715;44.760;37.678;2023-11-19T01:19:49;0.77;;;0.10;;
74922;SDS011;64715;44.760;37.678;2023-11-19T01:20:50;0.80;;;0.10;;
74922;SDS011;64715;44.760;37.678;2023-11-19T01:21:51;0.93;;;0.20;;
74922;SDS011;64715;44.760;37.678;2023-11-19T01:22:52;2.38;;;0.85;;
74922;SDS011;64715;44.760;37.678;2023-11-19T01:23:53;0.90;;;0.10;;
74922;SDS011;64715;44.760;37.678;2023-11-19T01:24:54;0.80;;;0.10;;
74922;SDS011;64715;44.760;37.678;2023-11-19T01:25:56;0.82;;;0.10;;
74922;SDS011;64715;44.760;37.678;2023-11-19T01:26:57;0.70;;;0.10;;
74922;SDS011;64715;44.760;37.678;2023-11-19T01:28:00;0.90;;;0.20;;
74922;SDS011;64715;44.760;37.678;2023-11-19T01:29:02;0.80;;;0.10;;
74922;SDS011;64715;44.760;37.678;2023-11-19T01:30:05;0.80;;;0.10;;
74922;SDS011;64715;44.760;37.678;2023-11-19T01:31:10;0.90;;;0.20;;
74922;SDS011;64715;44.760;37.678;2023-11-19T01:32:11;0.90;;;0.10;;
74922;SDS011;64715;44.760;37.678;2023-11-19T01:33:12;0.90;;;0.10;;
74922;SDS011;64715;44.760;37.678;2023-11-19T01:34:14;0.85;;;0.10;;
74922;SDS011;64715;44.760;37.678;2023-11-19T01:35:15;0.90;;;0.10;;
74922;SDS011;64715;44.760;37.678;2023-11-19T01:36:16;0.70;;;0.10;;
74922;SDS011;64715;44.760;37.678;2023-11-19T01:37:17;0.80;;;0.10;;
74922;SDS011;64715;44.760;37.678;2023-11-19T01:38:17;0.80;;;0.25;;
74922;SDS011;64715;44.760;37.678;2023-11-19T01:39:18;1.10;;;0.30;;
74922;SDS011;64715;44.760;37.678;2023-11-19T01:40:20;0.80;;;0.10;;
74922;SDS011;64715;44.760;37.678;2023-11-19T01:41:22;0.90;;;0.10;;
74922;SDS011;64715;44.760;37.678;2023-11-19T01:42:22;0.90;;;0.13;;
74922;SDS011;64715;44.760;37.678;2023-11-19T01:43:35;0.82;;;0.10;;
74922;SDS011;64715;44.760;37.678;2023-11-19T01:44:38;0.70;;;0.10;;
74922;SDS011;64715;44.760;37.678;2023-11-19T01:45:39;0.90;;;0.10;;
74922;SDS011;64715;44.760;37.678;2023-11-19T01:46:40;0.80;;;0.10;;
74922;SDS011;64715;44.760;37.678;2023-11-19T01:47:43;0.90;;;0.15;;
74922;SDS011;64715;44.760;37.678;2023-11-19T01:48:45;0.68;;;0.10;;
74922;SDS011;64715;44.760;37.678;2023-11-19T01:49:47;1.38;;;0.63;;
74922;SDS011;64715;44.760;37.678;2023-11-19T01:50:48;0.80;;;0.20;;
74922;SDS011;64715;44.760;37.678;2023-11-19T01:51:50;0.80;;;0.10;;
74922;SDS011;64715;44.760;37.678;2023-11-19T01:52:54;0.70;;;0.10;;
74922;SDS011;64715;44.760;37.678;2023-11-19T01:53:57;0.65;;;0.10;;
74922;SDS011;64715;44.760;37.678;2023-11-19T01:54:59;0.80;;;0.10;;
74922;SDS011;64715;44.760;37.678;2023-11-19T01:56:00;0.90;;;0.20;;
74922;SDS011;64715;44.760;37.678;2023-11-19T01:57:02;0.80;;;0.10;;
74922;SDS011;64715;44.760;37.678;2023-11-19T01:58:04;0.80;;;0.10;;
74922;SDS011;64715;44.760;37.678;2023-11-19T01:59:05;0.80;;;0.15;;
74922;SDS011;64715;44.760;37.678;2023-11-19T02:00:07;1.20;;;0.52;;
74922;SDS011;64715;44.760;37.678;2023-11-19T02:01:17;0.80;;;0.10;;
74922;SDS011;64715;44.760;37.678;2023-11-19T02:02:19;0.98;;;0.20;;
74922;SDS011;64715;44.760;37.678;2023-11-19T02:03:23;0.90;;;0.20;;
74922;SDS011;64715;44.760;37.678;2023-11-19T02:04:26;0.60;;;0.10;;
74922;SDS011;64715;44.760;37.678;2023-11-19T02:05:27;0.80;;;0.10;;
74922;SDS011;64715;44.760;37.678;2023-11-19T02:06:29;0.70;;;0.10;;
74922;SDS011;64715;44.760;37.678;2023-11-19T02:07:32;0.70;;;0.10;;
74922;SDS011;64715;44.760;37.678;2023-11-19T02:08:33;0.80;;;0.10;;
74922;SDS011;64715;44.760;37.678;2023-11-19T02:09:34;0.88;;;0.10;;
74922;SDS011;64715;44.760;37.678;2023-11-19T02:10:35;0.80;;;0.10;;
74922;SDS011;64715;44.760;37.678;2023-11-19T02:11:36;0.85;;;0.10;;
74922;SDS011;64715;44.760;37.678;2023-11-19T02:12:40;1.27;;;0.43;;
74922;SDS011;64715;44.760;37.678;2023-11-19T02:13:45;0.88;;;0.10;;
74922;SDS011;64715;44.760;37.678;2023-11-19T02:14:45;0.93;;;0.20;;
74922;SDS011;64715;44.760;37.678;2023-11-19T02:15:47;0.80;;;0.10;;
74922;SDS011;64715;44.760;37.678;2023-11-19T02:16:47;0.80;;;0.10;;
74922;SDS011;64715;44.760;37.678;2023-11-19T02:17:50;0.60;;;0.10;;
74922;SDS011;64715;44.760;37.678;2023-11-19T02:18:51;0.70;;;0.10;;
74922;SDS011;64715;44.760;37.678;2023-11-19T02:19:53;0.90;;;0.13;;
74922;SDS011;64715;44.760;37.678;2023-11-19T02:20:54;0.70;;;0.10;;
74922;SDS011;64715;44.760;37.678;2023-11-19T02:21:59;0.73;;;0.10;;
74922;SDS011;64715;44.760;37.678;2023-11-19T02:23:01;0.90;;;0.20;;
74922;SDS011;64715;44.760;37.678;2023-11-19T02:24:06;0.80;;;0.10;;
74922;SDS011;64715;44.760;37.678;2023-11-19T02:25:12;0.80;;;0.10;;
74922;SDS011;64715;44.760;37.678;2023-11-19T02:26:36;0.80;;;0.10;;
74922;SDS011;64715;44.760;37.678;2023-11-19T02:27:44;0.65;;;0.10;;
74922;SDS011;64715;44.760;37.678;2023-11-19T02:28:45;0.70;;;0.10;;
74922;SDS011;64715;44.760;37.678;2023-11-19T02:29:47;0.70;;;0.10;;
74922;SDS011;64715;44.760;37.678;2023-11-19T02:30:48;0.80;;;0.10;;
74922;SDS011;64715;44.760;37.678;2023-11-19T02:31:49;0.90;;;0.10;;
74922;SDS011;64715;44.760;37.678;2023-11-19T02:32:49;0.93;;;0.10;;
74922;SDS011;64715;44.760;37.678;2023-11-19T02:33:50;0.75;;;0.10;;
74922;SDS011;64715;44.760;37.678;2023-11-19T02:34:52;0.67;;;0.10;;
74922;SDS011;64715;44.760;37.678;2023-11-19T02:35:53;0.70;;;0.10;;
74922;SDS011;64715;44.760;37.678;2023-11-19T02:36:54;0.80;;;0.10;;
74922;SDS011;64715;44.760;37.678;2023-11-19T02:37:55;0.88;;;0.10;;
74922;SDS011;64715;44.760;37.678;2023-11-19T02:38:56;0.60;;;0.10;;
74922;SDS011;64715;44.760;37.678;2023-11-19T02:39:57;0.80;;;0.10;;
74922;SDS011;64715;44.760;37.678;2023-11-19T02:41:03;1.00;;;0.60;;
74922;SDS011;64715;44.760;37.678;2023-11-19T02:42:08;0.80;;;0.10;;
74922;SDS011;64715;44.760;37.678;2023-11-19T02:43:10;0.60;;;0.10;;
74922;SDS011;64715;44.760;37.678;2023-11-19T02:44:11;0.50;;;0.05;;
74922;SDS011;64715;44.760;37.678;2023-11-19T02:45:13;0.80;;;0.10;;
74922;SDS011;64715;44.760;37.678;2023-11-19T02:46:14;0.70;;;0.10;;
74922;SDS011;64715;44.760;37.678;2023-11-19T02:47:17;0.73;;;0.10;;
74922;SDS011;64715;44.760;37.678;2023-11-19T02:48:21;1.10;;;0.20;;
74922;SDS011;64715;44.760;37.678;2023-11-19T02:49:22;1.08;;;0.28;;
74922;SDS011;64715;44.760;37.678;2023-11-19T02:50:24;0.80;;;0.10;;
74922;SDS011;64715;44.760;37.678;2023-11-19T02:51:25;1.02;;;0.17;;
74922;SDS011;64715;44.760;37.678;2023-11-19T02:52:28;0.73;;;0.10;;
74922;SDS011;64715;44.760;37.678;2023-11-19T02:53:32;0.80;;;0.20;;
74922;SDS011;64715;44.760;37.678;2023-11-19T02:54:33;0.70;;;0.10;;
74922;SDS011;64715;44.760;37.678;2023-11-19T02:55:35;0.70;;;0.10;;
74922;SDS011;64715;44.760;37.678;2023-11-19T02:56:42;0.90;;;0.20;;
74922;SDS011;64715;44.760;37.678;2023-11-19T02:57:43;1.00;;;0.20;;
74922;SDS011;64715;44.760;37.678;2023-11-19T02:58:49;0.73;;;0.10;;
74922;SDS011;64715;44.760;37.678;2023-11-19T02:59:51;0.70;;;0.10;;
74922;SDS011;64715;44.760;37.678;2023-11-19T03:00:52;1.00;;;0.20;;
74922;SDS011;64715;44.760;37.678;2023-11-19T03:02:01;0.70;;;0.10;;
74922;SDS011;64715;44.760;37.678;2023-11-19T03:03:02;0.60;;;0.10;;
74922;SDS011;64715;44.760;37.678;2023-11-19T03:04:18;0.60;;;0.10;;
74922;SDS011;64715;44.760;37.678;2023-11-19T03:05:20;0.80;;;0.10;;
74922;SDS011;64715;44.760;37.678;2023-11-19T03:06:21;0.70;;;0.10;;
74922;SDS011;64715;44.760;37.678;2023-11-19T03:07:22;0.60;;;0.10;;
74922;SDS011;64715;44.760;37.678;2023-11-19T03:08:23;0.80;;;0.10;;
74922;SDS011;64715;44.760;37.678;2023-11-19T03:09:24;0.90;;;0.10;;
74922;SDS011;64715;44.760;37.678;2023-11-19T03:10:25;0.70;;;0.10;;
74922;SDS011;64715;44.760;37.678;2023-11-19T03:11:26;0.63;;;0.10;;
74922;SDS011;64715;44.760;37.678;2023-11-19T03:12:26;0.70;;;0.10;;
74922;SDS011;64715;44.760;37.678;2023-11-19T03:13:27;1.65;;;0.70;;
74922;SDS011;64715;44.760;37.678;2023-11-19T03:14:28;0.77;;;0.10;;
74922;SDS011;64715;44.760;37.678;2023-11-19T03:15:29;0.60;;;0.10;;
74922;SDS011;64715;44.760;37.678;2023-11-19T03:16:30;0.80;;;0.20;;
74922;SDS011;64715;44.760;37.678;2023-11-19T03:17:31;0.70;;;0.10;;
74922;SDS011;64715;44.760;37.678;2023-11-19T03:18:32;0.70;;;0.10;;
74922;SDS011;64715;44.760;37.678;2023-11-19T03:19:33;0.60;;;0.10;;
74922;SDS011;64715;44.760;37.678;2023-11-19T03:20:34;0.70;;;0.10;;
74922;SDS011;64715;44.760;37.678;2023-11-19T03:21:35;0.70;;;0.10;;
74922;SDS011;64715;44.760;37.678;2023-11-19T03:22:37;0.67;;;0.10;;
74922;SDS011;64715;44.760;37.678;2023-11-19T03:23:38;0.80;;;0.10;;
74922;SDS011;64715;44.760;37.678;2023-11-19T03:24:40;0.80;;;0.10;;
74922;SDS011;64715;44.760;37.678;2023-11-19T03:25:41;0.70;;;0.10;;
74922;SDS011;64715;44.760;37.678;2023-11-19T03:26:48;0.80;;;0.10;;
74922;SDS011;64715;44.760;37.678;2023-11-19T03:27:50;0.90;;;0.20;;
74922;SDS011;64715;44.760;37.678;2023-11-19T03:28:51;0.60;;;0.10;;
74922;SDS011;64715;44.760;37.678;2023-11-19T03:29:52;0.75;;;0.10;;
74922;SDS011;64715;44.760;37.678;2023-11-19T03:30:53;0.80;;;0.10;;
74922;SDS011;64715;44.760;37.678;2023-11-19T03:31:54;0.93;;;0.25;;
74922;SDS011;64715;44.760;37.678;2023-11-19T03:32:55;0.80;;;0.10;;
74922;SDS011;64715;44.760;37.678;2023-11-19T03:33:57;0.73;;;0.10;;
74922;SDS011;64715;44.760;37.678;2023-11-19T03:34:58;1.08;;;0.20;;
74922;SDS011;64715;44.760;37.678;2023-11-19T03:35:59;0.75;;;0.10;;
74922;SDS011;64715;44.760;37.678;2023-11-19T03:37:00;0.70;;;0.10;;
74922;SDS011;64715;44.760;37.678;2023-11-19T03:38:01;0.60;;;0.10;;
74922;SDS011;64715;44.760;37.678;2023-11-19T03:39:03;0.60;;;0.10;;
74922;SDS011;64715;44.760;37.678;2023-11-19T03:40:04;0.75;;;0.10;;
74922;SDS011;64715;44.760;37.678;2023-11-19T03:41:14;0.80;;;0.10;;
74922;SDS011;64715;44.760;37.678;2023-11-19T03:42:19;0.80;;;0.10;;
74922;SDS011;64715;44.760;37.678;2023-11-19T03:43:21;0.80;;;0.10;;
74922;SDS011;64715;44.760;37.678;2023-11-19T03:44:21;0.55;;;0.10;;
74922;SDS011;64715;44.760;37.678;2023-11-19T03:45:22;0.70;;;0.10;;
74922;SDS011;64715;44.760;37.678;2023-11-19T03:46:23;0.88;;;0.10;;
74922;SDS011;64715;44.760;37.678;2023-11-19T03:47:24;0.70;;;0.10;;
74922;SDS011;64715;44.760;37.678;2023-11-19T03:48:25;0.73;;;0.10;;
74922;SDS011;64715;44.760;37.678;2023-11-19T03:49:26;0.70;;;0.10;;
74922;SDS011;64715;44.760;37.678;2023-11-19T03:50:27;0.90;;;0.10;;
74922;SDS011;64715;44.760;37.678;2023-11-19T03:51:28;1.00;;;0.20;;
74922;SDS011;64715;44.760;37.678;2023-11-19T03:52:29;0.70;;;0.10;;
74922;SDS011;64715;44.760;37.678;2023-11-19T03:53:30;0.77;;;0.10;;
74922;SDS011;64715;44.760;37.678;2023-11-19T03:54:31;0.73;;;0.10;;
74922;SDS011;64715;44.760;37.678;2023-11-19T03:55:33;0.70;;;0.10;;
74922;SDS011;64715;44.760;37.678;2023-11-19T03:56:34;0.80;;;0.10;;
74922;SDS011;64715;44.760;37.678;2023-11-19T03:57:35;0.80;;;0.10;;
74922;SDS011;64715;44.760;37.678;2023-11-19T03:58:36;0.70;;;0.10;;
74922;SDS011;64715;44.760;37.678;2023-11-19T03:59:39;0.60;;;0.10;;
74922;SDS011;64715;44.760;37.678;2023-11-19T04:00:40;0.85;;;0.20;;
74922;SDS011;64715;44.760;37.678;2023-11-19T04:01:41;1.00;;;0.20;;
74922;SDS011;64715;44.760;37.678;2023-11-19T04:02:42;0.90;;;0.20;;
74922;SDS011;64715;44.760;37.678;2023-11-19T04:03:43;0.80;;;0.10;;
74922;SDS011;64715;44.760;37.678;2023-11-19T04:04:44;0.70;;;0.10;;
74922;SDS011;64715;44.760;37.678;2023-11-19T04:05:45;0.70;;;0.10;;
74922;SDS011;64715;44.760;37.678;2023-11-19T04:06:46;0.75;;;0.10;;
74922;SDS011;64715;44.760;37.678;2023-11-19T04:07:47;0.90;;;0.20;;
74922;SDS011;64715;44.760;37.678;2023-11-19T04:08:49;0.85;;;0.25;;
74922;SDS011;64715;44.760;37.678;2023-11-19T04:09:50;0.80;;;0.10;;
74922;SDS011;64715;44.760;37.678;2023-11-19T04:10:51;0.70;;;0.10;;
74922;SDS011;64715;44.760;37.678;2023-11-19T04:11:52;1.38;;;0.63;;
74922;SDS011;64715;44.760;37.678;2023-11-19T04:12:53;0.80;;;0.10;;
74922;SDS011;64715;44.760;37.678;2023-11-19T04:13:54;0.80;;;0.10;;
74922;SDS011;64715;44.760;37.678;2023-11-19T04:14:54;0.63;;;0.10;;
74922;SDS011;64715;44.760;37.678;2023-11-19T04:15:56;1.10;;;0.28;;
74922;SDS011;64715;44.760;37.678;2023-11-19T04:16:57;0.70;;;0.10;;
74922;SDS011;64715;44.760;37.678;2023-11-19T04:17:58;0.65;;;0.10;;
74922;SDS011;64715;44.760;37.678;2023-11-19T04:18:59;0.77;;;0.10;;
74922;SDS011;64715;44.760;37.678;2023-11-19T04:20:00;0.80;;;0.10;;
74922;SDS011;64715;44.760;37.678;2023-11-19T04:21:05;5.05;;;0.65;;
74922;SDS011;64715;44.760;37.678;2023-11-19T04:22:07;0.80;;;0.10;;
74922;SDS011;64715;44.760;37.678;2023-11-19T04:23:11;0.80;;;0.10;;
74922;SDS011;64715;44.760;37.678;2023-11-19T04:24:12;0.82;;;0.20;;
74922;SDS011;64715;44.760;37.678;2023-11-19T04:25:14;0.80;;;0.10;;
74922;SDS011;64715;44.760;37.678;2023-11-19T04:26:16;0.80;;;0.10;;
74922;SDS011;64715;44.760;37.678;2023-11-19T04:27:17;0.80;;;0.10;;
74922;SDS011;64715;44.760;37.678;2023-11-19T04:28:18;0.75;;;0.10;;
74922;SDS011;64715;44.760;37.678;2023-11-19T04:29:19;0.70;;;0.10;;
74922;SDS011;64715;44.760;37.678;2023-11-19T04:30:21;0.88;;;0.10;;
74922;SDS011;64715;44.760;37.678;2023-11-19T04:31:23;0.80;;;0.10;;
74922;SDS011;64715;44.760;37.678;2023-11-19T04:32:24;0.75;;;0.10;;
74922;SDS011;64715;44.760;37.678;2023-11-19T04:33:26;0.80;;;0.10;;
74922;SDS011;64715;44.760;37.678;2023-11-19T04:34:27;0.70;;;0.10;;
74922;SDS011;64715;44.760;37.678;2023-11-19T04:35:28;0.67;;;0.10;;
74922;SDS011;64715;44.760;37.678;2023-11-19T04:36:29;0.90;;;0.20;;
74922;SDS011;64715;44.760;37.678;2023-11-19T04:37:30;1.00;;;0.28;;
74922;SDS011;64715;44.760;37.678;2023-11-19T04:38:31;0.70;;;0.10;;
74922;SDS011;64715;44.760;37.678;2023-11-19T04:39:32;0.73;;;0.10;;
74922;SDS011;64715;44.760;37.678;2023-11-19T04:40:33;0.70;;;0.10;;
74922;SDS011;64715;44.760;37.678;2023-11-19T04:41:34;0.63;;;0.10;;
74922;SDS011;64715;44.760;37.678;2023-11-19T04:42:35;0.82;;;0.10;;
74922;SDS011;64715;44.760;37.678;2023-11-19T04:43:36;0.70;;;0.10;;
74922;SDS011;64715;44.760;37.678;2023-11-19T04:44:37;0.90;;;0.10;;
74922;SDS011;64715;44.760;37.678;2023-11-19T04:45:38;0.90;;;0.10;;
74922;SDS011;64715;44.760;37.678;2023-11-19T04:46:40;0.60;;;0.10;;
74922;SDS011;64715;44.760;37.678;2023-11-19T04:47:41;0.80;;;0.10;;
74922;SDS011;64715;44.760;37.678;2023-11-19T04:48:42;0.70;;;0.10;;
74922;SDS011;64715;44.760;37.678;2023-11-19T04:49:43;0.70;;;0.10;;
74922;SDS011;64715;44.760;37.678;2023-11-19T04:50:44;0.75;;;0.10;;
74922;SDS011;64715;44.760;37.678;2023-11-19T04:51:45;0.95;;;0.20;;
74922;SDS011;64715;44.760;37.678;2023-11-19T04:52:49;0.80;;;0.10;;
74922;SDS011;64715;44.760;37.678;2023-11-19T04:53:50;0.80;;;0.10;;
74922;SDS011;64715;44.760;37.678;2023-11-19T04:54:51;0.80;;;0.20;;
74922;SDS011;64715;44.760;37.678;2023-11-19T04:55:52;0.80;;;0.10;;
74922;SDS011;64715;44.760;37.678;2023-11-19T04:56:53;0.75;;;0.10;;
74922;SDS011;64715;44.760;37.678;2023-11-19T04:57:54;0.80;;;0.10;;
74922;SDS011;64715;44.760;37.678;2023-11-19T04:58:55;0.60;;;0.10;;
74922;SDS011;64715;44.760;37.678;2023-11-19T04:59:56;0.80;;;0.10;;
74922;SDS011;64715;44.760;37.678;2023-11-19T05:00:57;0.70;;;0.10;;
74922;SDS011;64715;44.760;37.678;2023-11-19T05:01:58;0.93;;;0.20;;
74922;SDS011;64715;44.760;37.678;2023-11-19T05:02:59;0.47;;;0.00;;
74922;SDS011;64715;44.760;37.678;2023-11-19T05:04:00;0.80;;;0.10;;
74922;SDS011;64715;44.760;37.678;2023-11-19T05:05:02;0.80;;;0.10;;
74922;SDS011;64715;44.760;37.678;2023-11-19T05:06:05;0.88;;;0.10;;
74922;SDS011;64715;44.760;37.678;2023-11-19T05:07:06;0.80;;;0.10;;
74922;SDS011;64715;44.760;37.678;2023-11-19T05:08:07;0.90;;;0.10;;
74922;SDS011;64715;44.760;37.678;2023-11-19T05:09:08;1.52;;;0.50;;
74922;SDS011;64715;44.760;37.678;2023-11-19T05:10:09;0.60;;;0.10;;
74922;SDS011;64715;44.760;37.678;2023-11-19T05:11:10;0.70;;;0.10;;
74922;SDS011;64715;44.760;37.678;2023-11-19T05:12:18;0.80;;;0.10;;
74922;SDS011;64715;44.760;37.678;2023-11-19T05:13:19;0.90;;;0.17;;
74922;SDS011;64715;44.760;37.678;2023-11-19T05:14:20;0.80;;;0.10;;
74922;SDS011;64715;44.760;37.678;2023-11-19T05:15:22;0.80;;;0.10;;
74922;SDS011;64715;44.760;37.678;2023-11-19T05:16:22;0.90;;;0.10;;
74922;SDS011;64715;44.760;37.678;2023-11-19T05:17:23;1.20;;;0.95;;
74922;SDS011;64715;44.760;37.678;2023-11-19T05:18:24;0.73;;;0.10;;
74922;SDS011;64715;44.760;37.678;2023-11-19T05:19:25;0.90;;;0.20;;
74922;SDS011;64715;44.760;37.678;2023-11-19T05:20:26;0.80;;;0.10;;
74922;SDS011;64715;44.760;37.678;2023-11-19T05:21:27;0.70;;;0.10;;
74922;SDS011;64715;44.760;37.678;2023-11-19T05:22:28;0.70;;;0.10;;
74922;SDS011;64715;44.760;37.678;2023-11-19T05:23:29;0.70;;;0.10;;
74922;SDS011;64715;44.760;37.678;2023-11-19T05:24:31;0.80;;;0.10;;
74922;SDS011;64715;44.760;37.678;2023-11-19T05:25:32;0.80;;;0.20;;
74922;SDS011;64715;44.760;37.678;2023-11-19T05:26:33;0.70;;;0.10;;
74922;SDS011;64715;44.760;37.678;2023-11-19T05:27:37;0.75;;;0.10;;
74922;SDS011;64715;44.760;37.678;2023-11-19T05:28:39;0.52;;;0.10;;
74922;SDS011;64715;44.760;37.678;2023-11-19T05:29:40;0.70;;;0.10;;
74922;SDS011;64715;44.760;37.678;2023-11-19T05:30:42;0.70;;;0.10;;
74922;SDS011;64715;44.760;37.678;2023-11-19T05:31:43;0.70;;;0.10;;
74922;SDS011;64715;44.760;37.678;2023-11-19T05:32:44;0.60;;;0.10;;
74922;SDS011;64715;44.760;37.678;2023-11-19T05:33:44;0.50;;;0.10;;
74922;SDS011;64715;44.760;37.678;2023-11-19T05:34:45;0.63;;;0.10;;
74922;SDS011;64715;44.760;37.678;2023-11-19T05:35:46;0.70;;;0.10;;
74922;SDS011;64715;44.760;37.678;2023-11-19T05:36:47;0.70;;;0.10;;
74922;SDS011;64715;44.760;37.678;2023-11-19T05:37:48;1.27;;;0.63;;
74922;SDS011;64715;44.760;37.678;2023-11-19T05:38:50;0.80;;;0.10;;
74922;SDS011;64715;44.760;37.678;2023-11-19T05:39:51;0.80;;;0.10;;
74922;SDS011;64715;44.760;37.678;2023-11-19T05:40:52;0.85;;;0.20;;
74922;SDS011;64715;44.760;37.678;2023-11-19T05:41:53;1.48;;;0.73;;
74922;SDS011;64715;44.760;37.678;2023-11-19T05:42:54;0.90;;;0.28;;
74922;SDS011;64715;44.760;37.678;2023-11-19T05:43:55;0.80;;;0.10;;
74922;SDS011;64715;44.760;37.678;2023-11-19T05:44:56;2.00;;;1.38;;
74922;SDS011;64715;44.760;37.678;2023-11-19T05:45:59;0.70;;;0.10;;
74922;SDS011;64715;44.760;37.678;2023-11-19T05:47:01;0.80;;;0.10;;
74922;SDS011;64715;44.760;37.678;2023-11-19T05:48:02;0.80;;;0.10;;
74922;SDS011;64715;44.760;37.678;2023-11-19T05:49:04;0.80;;;0.10;;
74922;SDS011;64715;44.760;37.678;2023-11-19T05:50:05;0.70;;;0.10;;
74922;SDS011;64715;44.760;37.678;2023-11-19T05:51:07;0.70;;;0.10;;
74922;SDS011;64715;44.760;37.678;2023-11-19T05:52:08;0.70;;;0.10;;
74922;SDS011;64715;44.760;37.678;2023-11-19T05:53:10;0.80;;;0.10;;
74922;SDS011;64715;44.760;37.678;2023-11-19T05:54:11;0.70;;;0.10;;
74922;SDS011;64715;44.760;37.678;2023-11-19T05:55:13;0.70;;;0.10;;
74922;SDS011;64715;44.760;37.678;2023-11-19T05:56:14;0.70;;;0.10;;
74922;SDS011;64715;44.760;37.678;2023-11-19T05:57:16;0.63;;;0.10;;
74922;SDS011;64715;44.760;37.678;2023-11-19T05:58:26;0.53;;;0.10;;
74922;SDS011;64715;44.760;37.678;2023-11-19T05:59:29;0.60;;;0.10;;
74922;SDS011;64715;44.760;37.678;2023-11-19T06:00:30;0.77;;;0.13;;
74922;SDS011;64715;44.760;37.678;2023-11-19T06:01:31;0.60;;;0.10;;
74922;SDS011;64715;44.760;37.678;2023-11-19T06:02:32;0.90;;;0.20;;
74922;SDS011;64715;44.760;37.678;2023-11-19T06:03:33;0.70;;;0.10;;
74922;SDS011;64715;44.760;37.678;2023-11-19T06:04:34;0.73;;;0.10;;
74922;SDS011;64715;44.760;37.678;2023-11-19T06:05:35;0.60;;;0.10;;
74922;SDS011;64715;44.760;37.678;2023-11-19T06:06:36;0.75;;;0.10;;